createdAt,value
2023-03-29T02:50:58.441Z,10.27
2023-03-29T02:53:42.436Z,7.50
2023-03-29T02:56:09.983Z,7.93
2023-03-29T02:58:37.561Z,8.88
2023-03-29T03:01:07.012Z,6.07
2023-03-29T03:03:35.762Z,19.33
2023-03-29T03:06:04.795Z,8.07
2023-03-29T03:08:32.537Z,6.38
2023-03-29T03:11:00.274Z,6.18
2023-03-29T03:13:27.996Z,6.55
2023-03-29T03:15:56.201Z,7.90
2023-03-29T03:18:24.209Z,7.57
2023-03-29T03:20:56.212Z,7.18
2023-03-29T03:23:24.973Z,6.97
2023-03-29T03:25:52.900Z,8.85
2023-03-29T03:28:22.201Z,7.15
2023-03-29T03:30:50.178Z,7.22
2023-03-29T03:33:18.837Z,6.95
2023-03-29T03:38:37.933Z,7.03
2023-03-29T03:41:09.638Z,6.60
2023-03-29T03:43:37.585Z,6.95
2023-03-29T03:46:05.459Z,6.05
2023-03-29T03:48:33.427Z,9.65
2023-03-29T03:51:27.381Z,7.25
2023-03-29T03:53:54.942Z,5.53
2023-03-29T03:56:34.456Z,6.68
2023-03-29T03:59:05.717Z,7.55
2023-03-29T04:01:53.701Z,5.80
2023-03-29T04:04:23.618Z,6.50
2023-03-29T04:07:04.892Z,6.47
2023-03-29T04:09:50.946Z,8.60
2023-03-29T04:12:44.733Z,5.75
2023-03-29T04:15:12.340Z,6.78
2023-03-29T04:17:46.072Z,9.18
2023-03-29T04:20:26.205Z,8.35
2023-03-29T04:22:54.118Z,7.28
2023-03-29T04:25:22.402Z,6.72
2023-03-29T04:27:58.962Z,6.03
2023-03-29T04:30:46.579Z,7.97
2023-03-29T04:33:34.567Z,5.90
2023-03-29T04:36:02.354Z,14.20
2023-03-29T04:38:32.079Z,8.27
2023-03-29T04:41:01.304Z,6.75
2023-03-29T04:43:46.710Z,7.28
2023-03-29T04:46:33.365Z,6.53
2023-03-29T04:49:07.115Z,6.97
2023-03-29T04:51:38.195Z,13.95
2023-03-29T04:54:06.993Z,8.80
2023-03-29T04:57:00.372Z,9.30
2023-03-29T04:59:38.870Z,9.93
2023-03-29T05:02:17.126Z,7.93
2023-03-29T05:04:48.113Z,8.90
2023-03-29T05:07:19.206Z,10.10
2023-03-29T05:09:48.081Z,7.07
2023-03-29T05:12:16.143Z,8.85
2023-03-29T05:14:54.018Z,7.15
2023-03-29T05:17:26.837Z,7.05
2023-03-29T05:19:57.229Z,7.63
2023-03-29T05:22:26.728Z,10.65
2023-03-29T05:24:54.336Z,7.95
2023-03-29T05:27:23.034Z,10.25
2023-03-29T05:30:03.747Z,8.95
2023-03-29T05:32:49.920Z,11.15
2023-03-29T05:35:24.451Z,9.95
2023-03-29T05:37:54.002Z,8.73
2023-03-29T05:40:22.887Z,9.57
2023-03-29T05:43:09.206Z,13.30
2023-03-29T05:45:36.948Z,15.55
2023-03-29T05:48:05.459Z,10.32
2023-03-29T05:50:34.648Z,9.65
2023-03-29T05:53:03.661Z,9.48
2023-03-29T05:55:31.174Z,9.57
2023-03-29T05:57:58.591Z,12.05
2023-03-29T06:00:31.973Z,17.80
2023-03-29T06:03:21.288Z,9.55
2023-03-29T06:05:56.868Z,10.45
2023-03-29T06:08:26.206Z,8.18
2023-03-29T06:11:26.390Z,8.57
2023-03-29T06:14:14.109Z,11.98
2023-03-29T06:16:47.441Z,16.33
2023-03-29T06:19:16.725Z,8.18
2023-03-29T06:21:44.553Z,11.20
2023-03-29T06:24:16.356Z,13.23
2023-03-29T06:26:50.484Z,10.13
2023-03-29T06:55:41.494Z,14.85
2023-03-29T06:58:31.735Z,15.32
2023-03-29T07:01:07.133Z,19.10
2023-03-29T07:03:47.420Z,21.95
2023-03-29T07:06:20.447Z,16.52
2023-03-29T07:08:52.481Z,16.55
2023-03-29T07:53:05.647Z,12.68
2023-03-29T07:55:34.049Z,16.63
2023-03-29T07:58:26.666Z,14.30
2023-03-29T08:00:54.309Z,23.35
2023-03-29T08:03:44.450Z,13.13
2023-03-29T08:06:12.369Z,18.42
2023-03-29T08:08:39.838Z,15.25
2023-03-29T08:11:12.056Z,15.73
2023-03-29T08:13:59.976Z,15.20
2023-03-29T08:16:27.573Z,18.20
2023-03-29T08:19:04.430Z,15.38
2023-03-29T08:21:52.172Z,13.88
2023-03-29T08:24:22.297Z,17.00
2023-03-29T08:26:55.525Z,16.58
2023-03-29T08:29:25.245Z,15.77
2023-03-29T08:31:52.832Z,14.90
2023-03-29T08:37:04.173Z,15.43
2023-03-29T08:39:45.981Z,16.33
2023-03-29T08:43:06.384Z,13.77
2023-03-29T08:46:09.005Z,17.73
2023-03-29T08:48:46.009Z,13.07
2023-03-29T08:51:24.614Z,16.48
2023-03-29T08:54:11.478Z,12.52
2023-03-29T08:57:17.389Z,13.80
2023-03-29T08:59:52.824Z,16.05
2023-03-29T09:02:27.909Z,13.85
2023-03-29T09:05:21.037Z,14.10
2023-03-29T09:07:58.073Z,19.17
2023-03-29T09:10:34.271Z,15.40
2023-03-29T09:13:51.481Z,19.35
2023-03-29T09:16:34.852Z,14.25
2023-03-29T09:19:06.341Z,14.10
2023-03-29T09:21:42.277Z,13.40
2023-03-29T09:24:17.246Z,14.20
2023-03-29T09:27:10.660Z,13.90
2023-03-29T09:30:08.228Z,12.85
2023-03-29T09:32:56.846Z,14.55
2023-03-29T09:35:39.264Z,14.48
2023-03-29T09:38:12.522Z,15.45
2023-03-29T09:40:51.699Z,12.13
2023-03-29T09:43:52.731Z,17.52
2023-03-29T09:46:41.964Z,15.02
2023-03-29T09:49:17.509Z,12.35
2023-03-29T09:54:17.062Z,14.27
2023-03-29T09:57:03.489Z,12.63
2023-03-29T09:59:31.371Z,11.20
2023-03-29T10:02:10.310Z,10.93
2023-03-29T10:04:38.627Z,15.00
2023-03-29T10:07:07.793Z,15.30
2023-03-29T10:09:35.856Z,12.93
2023-03-29T10:12:16.892Z,15.02
2023-03-29T10:14:54.234Z,16.98
2023-03-29T10:17:24.966Z,10.73
2023-03-29T10:19:57.172Z,13.35
2023-03-29T10:22:35.043Z,10.05
2023-03-29T10:25:02.644Z,13.05
2023-03-29T10:27:34.712Z,12.38
2023-03-29T10:30:12.889Z,11.27
2023-03-29T10:32:41.431Z,10.77
2023-03-29T10:35:33.905Z,13.90
2023-03-29T10:38:07.595Z,11.43
2023-03-29T10:40:41.481Z,10.98
2023-03-29T10:43:14.582Z,15.75
2023-03-29T10:45:42.533Z,11.50
2023-03-29T10:48:15.520Z,11.85
2023-03-29T10:50:48.747Z,13.73
2023-03-29T10:53:20.354Z,11.88
2023-03-29T10:56:00.995Z,12.57
2023-03-29T10:58:51.859Z,11.30
2023-03-29T11:01:57.961Z,11.48
2023-03-29T11:05:01.976Z,12.05
2023-03-29T11:07:38.908Z,15.85
2023-03-29T11:10:26.092Z,12.60
2023-03-29T11:12:59.565Z,15.65
2023-03-29T11:15:51.953Z,13.70
2023-03-29T11:18:25.394Z,11.05
2023-03-29T11:21:17.868Z,11.65
2023-03-29T11:24:01.490Z,11.80
2023-03-29T11:26:50.028Z,13.85
2023-03-29T11:29:40.663Z,14.00
2023-03-29T11:32:42.410Z,8.75
2023-03-29T11:35:31.842Z,12.15
2023-03-29T11:38:18.097Z,11.25
2023-03-29T11:41:09.324Z,14.27
2023-03-29T11:43:55.266Z,15.05
2023-03-29T11:46:32.273Z,14.23
2023-03-29T11:49:21.568Z,10.80
2023-03-29T11:52:14.288Z,14.27
2023-03-29T11:55:14.996Z,11.60
2023-03-29T11:57:45.603Z,12.35
2023-03-29T12:00:15.780Z,10.20
2023-03-29T12:02:59.659Z,15.98
2023-03-29T12:05:32.913Z,11.98
2023-03-29T12:08:06.774Z,10.20
2023-03-29T12:10:37.051Z,13.15
2023-03-29T12:13:24.025Z,15.73
2023-03-29T12:16:02.412Z,14.88
2023-03-29T12:18:57.966Z,12.38
2023-03-29T12:21:28.880Z,9.68
2023-03-29T12:23:58.240Z,13.93
2023-03-29T12:27:03.031Z,12.95
2023-03-29T12:29:48.798Z,12.20
2023-03-29T12:32:31.411Z,12.73
2023-03-29T12:35:44.299Z,8.45
2023-03-29T12:38:32.013Z,14.77
2023-03-29T12:41:24.484Z,9.45
2023-03-29T12:44:15.381Z,12.77
2023-03-29T12:47:03.321Z,7.93
2023-03-29T12:49:37.703Z,7.78
2023-03-29T12:52:26.995Z,7.95
2023-03-29T12:54:57.580Z,8.50
2023-03-29T12:58:00.518Z,11.00
2023-03-29T13:00:42.794Z,7.72
2023-03-29T13:03:34.791Z,14.55
2023-03-29T13:06:05.576Z,14.65
2023-03-29T13:08:37.114Z,10.77
2023-03-29T13:11:06.937Z,8.48
2023-03-29T13:13:40.410Z,13.05
2023-03-29T13:16:15.711Z,8.55
2023-03-29T13:19:19.558Z,7.97
2023-03-29T13:22:10.051Z,8.20
2023-03-29T13:25:25.360Z,10.88
2023-03-29T13:28:11.450Z,11.75
2023-03-29T13:30:57.637Z,14.32
2023-03-29T13:33:31.607Z,10.43
2023-03-29T13:36:21.248Z,7.53
2023-03-29T13:38:52.435Z,9.50
2023-03-29T13:41:32.586Z,10.95
2023-03-29T13:44:00.434Z,9.45
2023-03-29T13:46:42.518Z,15.63
2023-03-29T13:49:28.522Z,12.75
2023-03-29T13:52:16.763Z,10.07
2023-03-29T13:54:57.579Z,13.02
2023-03-29T13:57:37.648Z,14.07
2023-03-29T14:00:23.579Z,7.63
2023-03-29T14:02:55.903Z,9.70
2023-03-29T14:05:32.990Z,13.43
2023-03-29T14:08:32.010Z,11.98
2023-03-29T14:11:03.230Z,9.88
2023-03-29T14:13:31.208Z,15.10
2023-03-29T14:16:06.943Z,8.07
2023-03-29T14:21:04.998Z,12.15
2023-03-29T14:23:36.552Z,15.95
2023-03-29T14:26:08.358Z,12.00
2023-03-29T14:28:49.201Z,12.68
2023-03-29T14:31:33.323Z,12.00
2023-03-29T14:34:03.182Z,10.73
2023-03-29T14:36:33.378Z,8.45
2023-03-29T14:39:07.981Z,9.38
2023-03-29T14:41:37.510Z,9.65
2023-03-29T14:44:07.830Z,11.38
2023-03-29T14:46:36.828Z,8.48
2023-03-29T14:49:06.309Z,13.52
2023-03-29T14:51:34.382Z,9.15
2023-03-29T14:54:03.989Z,10.32
2023-03-29T14:56:33.207Z,10.40
2023-03-29T14:59:04.975Z,9.70
2023-03-29T15:01:33.406Z,9.63
2023-03-29T15:04:10.381Z,10.43
2023-03-29T15:06:44.129Z,10.93
2023-03-29T15:09:19.249Z,16.02
2023-03-29T15:11:55.006Z,13.15
2023-03-29T15:14:25.448Z,10.52
2023-03-29T15:17:03.930Z,10.80
2023-03-29T15:19:32.364Z,7.20
2023-03-29T15:22:10.104Z,8.18
2023-03-29T15:24:45.009Z,12.82
2023-03-29T15:27:18.196Z,10.95
2023-03-29T15:29:47.536Z,10.77
2023-03-29T15:32:23.467Z,11.90
2023-03-29T15:35:03.055Z,12.40
2023-03-29T15:37:31.444Z,10.63
2023-03-29T15:39:59.103Z,11.13
2023-03-29T15:42:26.746Z,14.38
2023-03-29T15:44:56.457Z,11.77
2023-03-29T15:47:24.277Z,10.15
2023-03-29T15:49:51.880Z,14.38
2023-03-29T15:52:19.496Z,11.38
2023-03-29T15:54:46.965Z,11.45
2023-03-29T15:57:16.311Z,9.65
2023-03-29T15:59:44.545Z,11.68
2023-03-29T16:02:16.612Z,13.45
2023-03-29T16:04:44.182Z,10.82
2023-03-29T16:07:17.344Z,15.00
2023-03-29T16:09:46.223Z,9.95
2023-03-29T16:12:16.217Z,15.43
2023-03-29T16:14:43.837Z,10.82
2023-03-29T16:17:11.581Z,11.07
2023-03-29T16:19:39.068Z,8.70
2023-03-29T16:22:07.618Z,10.70
2023-03-29T16:24:36.374Z,11.02
2023-03-29T16:27:04.462Z,14.70
2023-03-29T16:29:32.072Z,14.00
2023-03-29T16:31:59.702Z,12.23
2023-03-29T16:34:27.333Z,13.82
2023-03-29T16:36:55.097Z,13.68
2023-03-29T16:39:22.590Z,12.57
2023-03-29T16:41:50.300Z,16.15
2023-03-29T16:44:22.946Z,13.50
2023-03-29T16:46:54.401Z,13.70
2023-03-29T16:49:22.472Z,15.93
2023-03-29T16:51:50.561Z,9.88
2023-03-29T16:54:18.996Z,10.25
2023-03-29T16:56:47.037Z,12.98
2023-03-29T16:59:15.333Z,10.68
2023-03-29T17:01:42.933Z,11.60
2023-03-29T17:04:10.808Z,16.10
2023-03-29T17:06:38.370Z,11.20
2023-03-29T17:09:06.238Z,15.80
2023-03-29T17:11:34.674Z,9.48
2023-03-29T17:14:02.325Z,13.15
2023-03-29T17:16:29.869Z,14.15
2023-03-29T17:19:00.611Z,11.93
2023-03-29T17:21:29.654Z,13.85
2023-03-29T17:23:57.294Z,10.90
2023-03-29T17:26:24.834Z,10.93
2023-03-29T17:28:52.264Z,10.57
2023-03-29T17:31:19.925Z,12.20
2023-03-29T17:33:47.659Z,11.45
2023-03-29T17:36:15.793Z,13.82
2023-03-29T17:38:43.334Z,16.25
2023-03-29T17:41:11.095Z,18.52
2023-03-29T17:43:38.604Z,11.75
2023-03-29T17:46:06.585Z,15.20
2023-03-29T17:48:34.466Z,22.60
2023-03-29T17:51:02.258Z,19.67
2023-03-29T17:53:29.918Z,14.48
2023-03-29T17:55:57.488Z,14.02
2023-03-29T17:58:24.960Z,15.00
2023-03-29T18:00:52.541Z,13.05
2023-03-29T18:03:20.078Z,17.50
2023-03-29T18:05:48.186Z,17.42
2023-03-29T18:08:16.885Z,17.10
2023-03-29T18:10:44.424Z,13.95
2023-03-29T18:13:14.019Z,16.05
2023-03-29T18:15:42.296Z,14.73
2023-03-29T18:18:09.795Z,12.23
2023-03-29T18:20:37.468Z,23.75
2023-03-29T18:23:04.930Z,14.90
2023-03-29T18:25:32.463Z,22.77
2023-03-29T18:27:59.941Z,21.23
2023-03-29T18:30:27.574Z,17.67
2023-03-29T18:32:55.148Z,18.60
2023-03-29T18:35:22.782Z,18.23
2023-03-29T18:37:51.593Z,18.45
2023-03-29T18:40:24.868Z,14.70
2023-03-29T18:42:52.584Z,18.35
2023-03-29T18:45:22.254Z,12.15
2023-03-29T18:47:50.653Z,16.52
2023-03-29T18:50:18.468Z,19.52
2023-03-29T18:52:46.058Z,17.25
2023-03-29T18:55:13.534Z,15.15
2023-03-29T18:57:41.757Z,18.25
2023-03-29T19:00:11.964Z,17.67
2023-03-29T19:02:40.762Z,15.68
2023-03-29T19:05:09.376Z,17.92
2023-03-29T19:07:37.535Z,18.27
2023-03-29T19:10:06.704Z,16.52
2023-03-29T19:12:34.280Z,15.32
2023-03-29T19:15:02.832Z,18.17
2023-03-29T19:17:30.938Z,18.60
2023-03-29T19:19:59.026Z,19.05
2023-03-29T19:22:26.657Z,15.45
2023-03-29T19:24:54.403Z,13.70
2023-03-29T19:27:22.178Z,20.10
2023-03-29T19:29:50.097Z,16.05
2023-03-29T19:32:17.919Z,14.48
2023-03-29T19:34:45.422Z,16.48
2023-03-29T19:37:12.892Z,18.55
2023-03-29T19:39:41.514Z,18.65
2023-03-29T19:42:09.255Z,19.42
2023-03-29T19:44:38.372Z,24.13
2023-03-29T19:47:06.127Z,20.40
2023-03-29T19:49:37.041Z,16.92
2023-03-29T19:52:06.315Z,17.08
2023-03-29T19:54:34.061Z,15.77
2023-03-29T19:57:01.910Z,21.38
2023-03-29T19:59:31.152Z,17.27
2023-03-29T20:01:59.343Z,19.60
2023-03-29T20:04:28.830Z,19.40
2023-03-29T20:06:57.750Z,15.55
2023-03-29T20:09:25.275Z,15.93
2023-03-29T20:11:52.913Z,15.80
2023-03-29T20:14:20.728Z,22.02
2023-03-29T20:16:52.461Z,19.40
2023-03-29T20:19:26.934Z,17.48
2023-03-29T20:21:58.942Z,18.00
2023-03-29T20:24:26.625Z,16.85
2023-03-29T20:26:54.126Z,16.30
2023-03-29T20:29:21.752Z,17.08
2023-03-29T20:31:49.303Z,16.38
2023-03-29T20:34:18.190Z,22.05
2023-03-29T20:36:47.035Z,14.40
2023-03-29T20:39:17.839Z,14.70
2023-03-29T20:41:47.935Z,14.82
2023-03-29T20:44:17.061Z,19.73
2023-03-29T20:47:08.357Z,18.40
2023-03-29T20:49:39.530Z,22.00
2023-03-29T20:52:15.530Z,17.75
2023-03-29T20:54:44.476Z,17.60
2023-03-29T20:57:17.170Z,18.20
2023-03-29T20:59:45.787Z,15.85
2023-03-29T21:02:19.187Z,18.23
2023-03-29T21:04:53.775Z,16.80
2023-03-29T21:07:21.952Z,19.50
2023-03-29T21:09:50.349Z,17.73
2023-03-29T21:12:17.922Z,26.60
2023-03-29T21:14:47.367Z,15.07
2023-03-29T21:17:15.350Z,18.77
2023-03-29T21:19:42.849Z,19.48
2023-03-29T21:22:13.819Z,18.92
2023-03-29T21:24:41.442Z,19.50
2023-03-29T21:27:09.130Z,17.77
2023-03-29T21:29:36.649Z,16.27
2023-03-29T21:32:04.674Z,18.83
2023-03-29T21:34:32.190Z,18.95
2023-03-29T21:36:59.717Z,16.55
2023-03-29T21:39:27.646Z,19.13
2023-03-29T21:41:55.200Z,20.63
2023-03-29T21:44:22.697Z,20.70
2023-03-29T21:46:50.197Z,16.23
2023-03-29T21:49:17.949Z,14.77
2023-03-29T21:51:46.515Z,17.85
2023-03-29T21:54:14.055Z,13.45
2023-03-29T21:56:41.625Z,18.63
2023-03-29T21:59:09.023Z,13.05
2023-03-29T22:01:36.574Z,16.30
2023-03-29T22:04:04.328Z,17.92
2023-03-29T22:06:32.003Z,17.80
2023-03-29T22:09:00.753Z,22.70
2023-03-29T22:11:31.099Z,22.80
2023-03-29T22:13:58.639Z,17.35
2023-03-29T22:16:28.115Z,17.70
2023-03-29T22:18:55.818Z,22.17
2023-03-29T22:21:26.527Z,15.88
2023-03-29T22:23:59.368Z,21.48
2023-03-29T22:26:31.949Z,14.77
2023-03-29T22:29:00.828Z,15.13
2023-03-29T22:31:29.795Z,16.80
2023-03-29T22:33:58.656Z,18.17
2023-03-29T22:36:28.693Z,20.73
2023-03-29T22:38:56.312Z,18.90
2023-03-29T22:41:26.127Z,18.40
2023-03-29T22:43:56.136Z,18.25
2023-03-29T22:46:24.794Z,20.63
2023-03-29T22:48:53.151Z,18.85
2023-03-29T22:51:21.296Z,14.68
2023-03-29T22:53:48.721Z,18.23
2023-03-29T22:56:16.902Z,18.52
2023-03-29T22:58:44.787Z,17.08
2023-03-29T23:01:12.778Z,20.35
2023-03-29T23:03:40.528Z,22.38
2023-03-29T23:06:08.046Z,18.55
2023-03-29T23:08:36.313Z,17.58
2023-03-29T23:11:04.610Z,22.83
2023-03-29T23:13:33.752Z,17.65
2023-03-29T23:16:03.592Z,20.88
2023-03-29T23:18:34.950Z,20.05
2023-03-29T23:21:05.609Z,20.75
2023-03-29T23:23:33.835Z,17.65
2023-03-29T23:26:02.055Z,18.27
2023-03-29T23:28:34.584Z,22.77
2023-03-29T23:31:05.814Z,22.35
2023-03-29T23:33:35.678Z,22.25
2023-03-29T23:36:05.838Z,18.83
2023-03-29T23:38:35.142Z,20.40
2023-03-29T23:41:06.307Z,21.00
2023-03-29T23:43:37.320Z,14.45
2023-03-29T23:46:11.346Z,23.23
2023-03-29T23:48:39.450Z,19.05
2023-03-29T23:51:08.360Z,20.73
2023-03-29T23:53:36.847Z,16.70
2023-03-29T23:56:06.007Z,16.13
2023-03-29T23:58:37.549Z,18.30
